Flight Track Log - Related Links

Times and Time Zones

All times are in EDT time to prevent confusion due to time zone crossing. See the USC110 flight status page for this flight to view local times or setup timezone preferences in your user account.

Time Position Orientation Groundspeed Altitude Reporting Facility
EDT Latitude Longitude Course Direction KTS MPH feet Rate Location/Type
Sun 01:13:22 PM 38.6500 -90.6667 218° Southwest 89 102 1,100  Level Gateway (St. Louis) TRACON
Sun 01:14:22 PM 38.6333 -90.6833 218° Southwest 108 124 1,800 709 Climbing Gateway (St. Louis) TRACON
Sun 01:15:12 PM 38.6044 -90.6967 200° South 107 123 2,400 804 Climbing Kansas City Center
Sun 01:16:14 PM 38.5756 -90.6972 181° South 108 124 3,300 774 Climbing Kansas City Center
Sun 01:17:16 PM 38.5453 -90.6864 164° South 112 129 4,000 816 Climbing Kansas City Center
Sun 01:18:19 PM 38.5119 -90.6594 148° Southeast 115 132 5,000 864 Climbing Kansas City Center
Sun 01:19:21 PM 38.4867 -90.6292 137° Southeast 120 138 5,800 774 Climbing Kansas City Center
Sun 01:20:23 PM 38.4608 -90.5964 135° Southeast 126 145 6,600 726 Climbing Kansas City Center
Sun 01:21:25 PM 38.4325 -90.5628 137° Southeast 132 152 7,300 726 Climbing Kansas City Center
Sun 01:22:27 PM 38.4072 -90.5269 132° Southeast 137 158 8,100 677 Climbing Kansas City Center
Sun 01:23:29 PM 38.3806 -90.4911 134° Southeast 140 161 8,700 435 Climbing Kansas City Center
Sun 01:24:31 PM 38.3464 -90.4447 133° Southeast 148 170 9,000 145 Climbing Kansas City Center
Sun 01:25:33 PM 38.3083 -90.3986 136° Southeast 177 204 9,000  Level Kansas City Center
Sun 01:26:35 PM 38.2689 -90.3503 136° Southeast 194 223 9,000  Level Kansas City Center
Sun 01:27:37 PM 38.2308 -90.3025 135° Southeast 195 224 9,000  Level Kansas City Center
Sun 01:28:39 PM 38.1911 -90.2544 136° Southeast 196 226 9,000  Level Kansas City Center
Sun 01:29:41 PM 38.1425 -90.1958 137° Southeast 201 231 9,000  Level Kansas City Center
Sun 01:30:43 PM 38.1033 -90.1436 134° Southeast 204 235 9,000  Level Kansas City Center
Sun 01:31:45 PM 38.0633 -90.0944 136° Southeast 202 232 9,000  Level Kansas City Center
Sun 01:32:47 PM 38.0186 -90.0394 136° Southeast 199 229 9,000  Level Kansas City Center
Sun 01:33:49 PM 37.9789 -89.9897 135° Southeast 201 231 9,000  Level Kansas City Center
Sun 01:34:51 PM 37.9361 -89.9375 136° Southeast 199 229 9,000  Level Kansas City Center
Sun 01:35:53 PM 37.8967 -89.8897 136° Southeast 198 228 9,000  Level Kansas City Center
Sun 01:36:55 PM 37.8550 -89.8394 136° Southeast 195 224 9,000  Level Kansas City Center
Sun 01:37:57 PM 37.8186 -89.7922 134° Southeast 201 231 9,000  Level Kansas City Center
Sun 01:38:59 PM 37.7792 -89.7453 137° Southeast 198 228 9,000  Level Kansas City Center
Sun 01:40:01 PM 37.7375 -89.6961 137° Southeast 201 231 9,000  Level Kansas City Center
Sun 01:41:03 PM 37.6964 -89.6469 137° Southeast 204 235 9,000  Level Kansas City Center
Sun 01:42:05 PM 37.6486 -89.5847 134° Southeast 206 237 9,000  Level Kansas City Center
Sun 01:43:07 PM 37.6067 -89.5358 137° Southeast 205 236 9,000  Level Kansas City Center
Sun 01:44:09 PM 37.5608 -89.4822 137° Southeast 205 236 9,000  Level Kansas City Center
Sun 01:45:11 PM 37.5194 -89.4322 136° Southeast 205 236 9,000  Level Kansas City Center
Sun 01:46:13 PM 37.4783 -89.3817 136° Southeast 205 236 9,000  Level Kansas City Center
Sun 01:47:15 PM 37.4378 -89.3325 136° Southeast 203 234 9,000  Level Kansas City Center
Sun 01:48:17 PM 37.3961 -89.2839 137° Southeast 204 235 9,000  Level Kansas City Center
Sun 01:49:19 PM 37.3547 -89.2350 137° Southeast 203 234 9,000  Level Kansas City Center
Sun 01:50:21 PM 37.3144 -89.1853 136° Southeast 203 234 9,000  Level Kansas City Center
Sun 01:51:23 PM 37.2658 -89.1275 137° Southeast 201 231 9,000  Level Kansas City Center
Sun 01:52:25 PM 37.2239 -89.0803 138° Southeast 201 231 9,000  Level Kansas City Center
Sun 01:53:27 PM 37.1839 -89.0322 136° Southeast 200 230 9,000  Level Kansas City Center
Sun 01:54:29 PM 37.1428 -88.9833 137° Southeast 201 231 9,000  Level Kansas City Center
Sun 01:55:31 PM 37.1022 -88.9358 137° Southeast 201 231 9,000  Level Kansas City Center
Sun 01:56:33 PM 37.0619 -88.8881 137° Southeast 200 230 9,000 -50 Level Kansas City Center
Sun 01:57:32 PM 37.0225 -88.8419 137° Southeast 200 230 8,900  Descending Memphis Center
Sun 01:58:32 PM 36.9825 -88.7961 138° Southeast 200 230 9,000 50 Climbing Memphis Center
Sun 01:59:32 PM 36.9422 -88.7475 136° Southeast 195 224 9,000 -50 Level Memphis Center
Sun 02:00:32 PM 36.9019 -88.7017 138° Southeast 195 224 8,900  Descending Memphis Center
Sun 02:01:32 PM 36.8639 -88.6533 135° Southeast 195 224 9,000 50 Climbing Memphis Center
Sun 02:02:32 PM 36.8236 -88.6075 138° Southeast 195 224 9,000  Level Memphis Center
Sun 02:03:32 PM 36.7833 -88.5592 136° Southeast 195 224 9,000 -50 Level Memphis Center
Sun 02:04:32 PM 36.7453 -88.5133 136° Southeast 195 224 8,900 -50 Descending Memphis Center
Sun 02:05:32 PM 36.7028 -88.4653 138° Southeast 195 224 8,900 50 Level Memphis Center
Sun 02:06:32 PM 36.6644 -88.4219 138° Southeast 195 224 9,000 50 Climbing Memphis Center
Sun 02:07:32 PM 36.6242 -88.3739 136° Southeast 195 224 9,000 -50 Level Memphis Center
Sun 02:08:32 PM 36.5817 -88.3258 138° Southeast 195 224 8,900  Descending Memphis Center
Sun 02:09:32 PM 36.5414 -88.2778 136° Southeast 195 224 9,000 50 Climbing Memphis Center
Sun 02:10:32 PM 36.5031 -88.2322 136° Southeast 195 224 9,000 -50 Level Memphis Center
Sun 02:11:32 PM 36.4625 -88.1792 134° Southeast 200 230 8,900 -50 Descending Memphis Center
Sun 02:12:32 PM 36.4239 -88.1183 128° Southeast 200 230 8,900  Level Memphis Center
Sun 02:13:32 PM 36.3919 -88.0728 131° Southeast 200 230 8,900  Level Memphis Center
Sun 02:14:32 PM 36.3575 -88.0172 128° Southeast 205 236 8,900  Level Memphis Center
Sun 02:15:32 PM 36.3231 -87.9639 129° Southeast 205 236 8,900  Level Memphis Center
Sun 02:16:32 PM 36.2867 -87.9111 131° Southeast 198 228 8,900  Level Memphis Center
Sun 02:17:32 PM 36.2500 -87.8556 129° Southeast 203 234 8,900 50 Level Memphis Center
Sun 02:18:32 PM 36.2178 -87.8050 128° Southeast 203 234 9,000 50 Climbing Memphis Center
Sun 02:19:32 PM 36.1811 -87.7494 129° Southeast 203 234 9,000 -50 Level Memphis Center
Sun 02:20:32 PM 36.1444 -87.6917 128° Southeast 203 234 8,900  Descending Memphis Center
Sun 02:21:32 PM 36.1058 -87.6389 132° Southeast 203 234 9,000  Climbing Memphis Center
Sun 02:22:32 PM 36.0714 -87.5861 129° Southeast 198 228 8,900 -50 Descending Memphis Center
Sun 02:23:32 PM 36.0367 -87.5333 129° Southeast 198 228 8,900  Level Memphis Center
Sun 02:24:32 PM 36.0000 -87.4783 129° Southeast 198 228 8,900 50 Level Memphis Center
Sun 02:25:32 PM 35.9653 -87.4256 129° Southeast 203 234 9,000  Climbing Memphis Center
Sun 02:26:32 PM 35.9308 -87.3731 129° Southeast 203 234 8,900  Descending Memphis Center
Sun 02:27:32 PM 35.8961 -87.3206 129° Southeast 198 228 9,000 50 Climbing Memphis Center
Sun 02:28:32 PM 35.8614 -87.2681 129° Southeast 198 228 9,000  Level Memphis Center
Sun 02:29:32 PM 35.8269 -87.2181 130° Southeast 207 238 9,000 -50 Level Memphis Center
Sun 02:30:32 PM 35.7944 -87.1681 129° Southeast 202 232 8,900  Descending Memphis Center
Sun 02:31:32 PM 35.7597 -87.1158 129° Southeast 196 226 9,000  Climbing Memphis Center
Sun 02:32:32 PM 35.7292 -87.0708 130° Southeast 191 220 8,900  Descending Memphis Center
Sun 02:33:33 PM 35.6944 -87.0211 131° Southeast 191 220 9,000  Climbing Memphis Center
Sun 02:34:32 PM 35.6619 -86.9714 129° Southeast 191 220 8,900 -50 Descending Memphis Center
Sun 02:35:32 PM 35.6250 -86.9219 133° Southeast 191 220 8,900  Level Memphis Center
Sun 02:36:32 PM 35.5922 -86.8694 128° Southeast 191 220 8,900 50 Level Memphis Center
Sun 02:37:32 PM 35.5597 -86.8200 129° Southeast 191 220 9,000  Climbing Memphis Center
Sun 02:38:32 PM 35.5250 -86.7703 131° Southeast 191 220 8,900  Descending Memphis Center
Sun 02:39:32 PM 35.4858 -86.7161 132° Southeast 191 220 9,000  Climbing Memphis Center
Sun 02:40:32 PM 35.4531 -86.6664 129° Southeast 191 220 8,900 -50 Descending Memphis Center
Sun 02:41:32 PM 35.4203 -86.6169 129° Southeast 191 220 8,900 50 Level Memphis Center
Sun 02:42:32 PM 35.3853 -86.5625 128° Southeast 191 220 9,000 50 Climbing Memphis Center
Sun 02:43:32 PM 35.3503 -86.5131 131° Southeast 191 220 9,000 -50 Level Memphis Center
Sun 02:44:32 PM 35.3153 -86.4639 131° Southeast 191 220 8,900  Descending Memphis Center
Sun 02:45:32 PM 35.2828 -86.4172 130° Southeast 191 220 9,000 50 Climbing Memphis Center
Sun 02:46:32 PM 35.2497 -86.3653 128° Southeast 186 214 9,000  Level Memphis Center
Sun 02:47:32 PM 35.2128 -86.3161 133° Southeast 186 214 9,000 -50 Level Memphis Center
Sun 02:48:32 PM 35.1797 -86.2644 128° Southeast 191 220 8,900 -50 Descending Memphis Center
Sun 02:49:32 PM 35.1492 -86.2228 132° Southeast 191 220 8,900 50 Level Memphis Center
Sun 02:50:32 PM 35.1136 -86.1611 125° Southeast 196 226 9,000  Climbing Memphis Center
Sun 02:51:32 PM 35.0786 -86.1147 133° Southeast 196 226 8,900  Descending Memphis Center
Sun 02:52:32 PM 35.0456 -86.0631 128° Southeast 196 226 9,000 50 Climbing Memphis Center
Sun 02:53:32 PM 35.0106 -86.0167 133° Southeast 196 226 9,000  Level Memphis Center
Sun 02:54:32 PM 34.9756 -85.9653 130° Southeast 196 226 9,000  Level Memphis Center
Sun 02:55:32 PM 34.9403 -85.9164 131° Southeast 191 220 9,000  Level Memphis Center
Sun 02:56:32 PM 34.9053 -85.8675 131° Southeast 191 220 9,000  Level Memphis Center
Sun 02:57:32 PM 34.8742 -85.8186 128° Southeast 191 220 9,000  Level Memphis Center
Sun 02:58:32 PM 34.8389 -85.7675 130° Southeast 191 220 9,000  Level Memphis Center
Sun 02:59:32 PM 34.8039 -85.7214 133° Southeast 186 214 9,000  Level Memphis Center
Sun 03:00:42 PM 34.7686 -85.6722 131° Southeast 190 219 9,000  Level Atlanta Center
Sun 03:01:42 PM 34.7336 -85.6236 131° Southeast 190 219 9,000  Level Atlanta Center
Sun 03:02:42 PM 34.6989 -85.5722 129° Southeast 190 219 9,000  Level Atlanta Center
Sun 03:03:42 PM 34.6661 -85.5239 129° Southeast 185 213 9,000  Level Atlanta Center
Sun 03:04:42 PM 34.6311 -85.4778 133° Southeast 185 213 9,000  Level Atlanta Center
Sun 03:05:42 PM 34.5964 -85.4242 128° Southeast 185 213 9,000  Level Atlanta Center
Sun 03:06:42 PM 34.5614 -85.3781 133° Southeast 185 213 9,000  Level Atlanta Center
Sun 03:07:42 PM 34.5283 -85.3322 131° Southeast 185 213 9,000  Level Atlanta Center
Sun 03:08:42 PM 34.4933 -85.2839 131° Southeast 185 213 9,000  Level Atlanta Center
Sun 03:09:42 PM 34.4606 -85.2356 129° Southeast 185 213 9,000  Level Atlanta Center
Sun 03:10:42 PM 34.4256 -85.1872 131° Southeast 185 213 9,000  Level Atlanta Center
Sun 03:11:42 PM 34.3947 -85.1414 129° Southeast 185 213 9,000  Level Atlanta Center
Sun 03:12:42 PM 34.3575 -85.0906 132° Southeast 185 213 9,000  Level Atlanta Center
Sun 03:13:42 PM 34.3244 -85.0450 131° Southeast 185 213 9,000 -200 Level Atlanta Center
Sun 03:14:42 PM 34.2853 -84.9917 132° Southeast 185 213 8,600 -400 Descending Atlanta Center
Sun 03:15:42 PM 34.2481 -84.9383 130° Southeast 192 221 8,200 -300 Descending Atlanta Center
Sun 03:16:42 PM 34.2150 -84.8903 130° Southeast 192 221 8,000 -100 Descending Atlanta Center
Sun 03:17:42 PM 34.1756 -84.8472 138° Southeast 192 221 8,000 -200 Level Atlanta Center
Sun 03:18:42 PM 34.1383 -84.8017 135° Southeast 192 221 7,600 -500 Descending Atlanta Center
Sun 03:19:42 PM 34.0989 -84.7564 136° Southeast 192 221 7,000 -650 Descending Atlanta Center
Sun 03:20:42 PM 34.0575 -84.7083 136° Southeast 192 221 6,300 -750 Descending Atlanta Center
Sun 03:21:42 PM 34.0181 -84.6628 136° Southeast 198 228 5,500 -800 Descending Atlanta Center
Sun 03:22:42 PM 33.9808 -84.6175 135° Southeast 198 228 4,700 -750 Descending Atlanta Center
Sun 03:23:42 PM 33.9433 -84.5747 137° Southeast 193 222 4,000 -600 Descending Atlanta Center
Sun 03:24:42 PM 33.9061 -84.5319 136° Southeast 193 222 3,500 -444 Descending Atlanta Center
Sun 03:25:57 PM 33.8667 -84.4833 134° Southeast 170 196 3,000 -578 Descending Atlanta TRACON
Sun 03:26:57 PM 33.8167 -84.4667 165° South 175 201 2,200 -800 Descending Atlanta TRACON

Login

Don't have an account? Register now (free) for customized features, flight alerts, and more!